Time;durP1;ratioP1;P1;durP2;ratioP2;P2;SDS_P1;SDS_P2;PMS_P1;PMS_P2;Temp;Humidity;BMP_temperature;BMP_pressure;BME280_temperature;BME280_humidity;BME280_pressure;Samples;Min_cycle;Max_cycle;Signal;HPM_P1;HPM_P2
2022/03/18 00:00:21;;;;;;;16.75;9.70;;;;;;;-1.82;46.41;103109.55;1758278;80;21115;-68
2022/03/18 00:02:49;;;;;;;15.10;8.55;;;;;;;-1.85;46.50;103105.01;1745670;79;21191;-69
2022/03/18 00:05:16;;;;;;;13.62;7.92;;;;;;;-1.86;46.38;103110.72;1755024;80;21038;-67
2022/03/18 00:07:45;;;;;;;15.55;9.48;;;;;;;-1.87;46.31;103110.38;1756266;80;21058;-66
2022/03/18 00:10:14;;;;;;;15.68;9.15;;;;;;;-1.89;46.31;103114.87;1758403;80;21491;-68
2022/03/18 00:12:43;;;;;;;17.20;8.85;;;;;;;-1.94;46.35;103105.19;1758938;79;21058;-70
2022/03/18 00:15:12;;;;;;;16.62;7.90;;;;;;;-1.99;46.43;103112.09;1761868;80;21846;-67
2022/03/18 00:17:40;;;;;;;16.12;8.80;;;;;;;-2.00;46.50;103115.66;1765622;80;20905;-68
2022/03/18 00:20:10;;;;;;;18.73;10.38;;;;;;;-2.02;46.55;103115.41;1761233;80;21038;-67
2022/03/18 00:22:40;;;;;;;18.12;10.03;;;;;;;-2.04;46.53;103122.52;1756971;80;21530;-68
2022/03/18 00:25:09;;;;;;;16.10;8.30;;;;;;;-2.06;46.52;103118.72;1743189;82;21053;-68
2022/03/18 00:27:38;;;;;;;13.55;7.70;;;;;;;-2.10;46.50;103117.76;1757570;80;21207;-68
2022/03/18 00:30:07;;;;;;;14.23;8.13;;;;;;;-2.13;46.48;103116.19;1758623;80;21075;-68
2022/03/18 00:32:35;;;;;;;14.30;9.00;;;;;;;-2.16;46.50;103118.55;1763185;80;21426;-67
2022/03/18 00:35:02;;;;;;;14.18;8.68;;;;;;;-2.16;46.44;103119.02;1759301;80;21042;-70
2022/03/18 00:37:30;;;;;;;16.50;8.75;;;;;;;-2.19;46.44;103120.08;1761506;80;21122;-68
2022/03/18 00:39:57;;;;;;;12.40;7.00;;;;;;;-2.20;46.45;103126.27;1761415;80;21027;-67
2022/03/18 00:42:24;;;;;;;13.32;8.35;;;;;;;-2.23;46.51;103122.55;1763075;80;21105;-67
2022/03/18 00:44:51;;;;;;;13.93;7.95;;;;;;;-2.26;46.53;103124.56;1762373;80;21030;-68
2022/03/18 00:52:52;;;;;;;12.40;7.75;;;;;;;-2.33;46.62;103122.85;1757757;79;21839;-67
2022/03/18 00:55:20;;;;;;;13.22;7.08;;;;;;;-2.37;46.74;103126.16;1757451;80;21027;-67
2022/03/18 00:57:48;;;;;;;13.18;7.17;;;;;;;-2.40;46.78;103123.76;1757790;80;21081;-67
2022/03/18 01:00:16;;;;;;;12.88;7.78;;;;;;;-2.39;46.82;103124.59;1758413;80;21004;-67
2022/03/18 01:02:44;;;;;;;10.80;5.83;;;;;;;-2.38;46.84;103127.56;1765873;79;21035;-68
2022/03/18 01:05:11;;;;;;;11.85;7.33;;;;;;;-2.40;46.86;103126.85;1746478;79;21175;-68
2022/03/18 01:07:38;;;;;;;11.80;6.50;;;;;;;-2.43;46.95;103130.99;1771763;80;21105;-69
2022/03/18 01:10:07;;;;;;;13.83;7.12;;;;;;;-2.43;47.01;103130.99;1775067;80;21078;-67
2022/03/18 01:12:36;;;;;;;10.93;6.40;;;;;;;-2.45;47.06;103123.23;1776559;79;21018;-67
2022/03/18 01:15:04;;;;;;;12.20;6.92;;;;;;;-2.43;47.10;103121.83;1767994;80;21106;-68
2022/03/18 01:17:33;;;;;;;11.97;6.65;;;;;;;-2.44;47.11;103133.22;1762006;80;21066;-66
2022/03/18 01:20:02;;;;;;;11.63;6.25;;;;;;;-2.42;47.15;103137.89;1745983;82;21535;-68
2022/03/18 01:22:30;;;;;;;9.80;6.12;;;;;;;-2.47;47.25;103137.36;1746087;82;21038;-67
2022/03/18 01:24:58;;;;;;;11.08;6.10;;;;;;;-2.52;47.35;103144.24;1751828;80;21046;-67
2022/03/18 01:27:25;;;;;;;12.07;6.50;;;;;;;-2.55;47.49;103146.23;1800878;79;21038;-68
2022/03/18 01:29:52;;;;;;;11.80;6.65;;;;;;;-2.58;47.55;103142.52;1808358;79;21097;-67
2022/03/18 01:32:20;;;;;;;12.35;6.85;;;;;;;-2.60;47.62;103142.17;1808551;79;21035;-67
2022/03/18 01:34:47;;;;;;;12.73;6.58;;;;;;;-2.64;47.70;103145.92;1808205;79;21007;-66
2022/03/18 01:37:14;;;;;;;12.18;6.62;;;;;;;-2.65;47.74;103144.25;1765223;79;21117;-67
2022/03/18 01:39:42;;;;;;;12.85;7.55;;;;;;;-2.66;47.80;103149.61;1761406;81;21074;-67
2022/03/18 01:42:09;;;;;;;12.80;7.33;;;;;;;-2.70;47.84;103137.66;1761262;81;21635;-67
2022/03/18 01:44:43;;;;;;;12.88;7.22;;;;;;;-2.76;47.91;103143.30;1767462;80;21506;-68
2022/03/18 01:47:11;;;;;;;11.48;7.00;;;;;;;-2.77;48.00;103149.48;1776722;80;21125;-67
2022/03/18 01:49:38;;;;;;;12.85;7.10;;;;;;;-2.81;48.03;103142.33;1776360;80;21026;-68
2022/03/18 01:52:07;;;;;;;13.20;7.42;;;;;;;-2.82;48.10;103148.52;1776956;80;21002;-67
2022/03/18 01:54:49;;;;;;;11.30;6.78;;;;;;;-2.82;48.12;103151.13;1779928;80;21283;-68
2022/03/18 01:57:23;;;;;;;10.82;6.78;;;;;;;-2.85;48.16;103152.64;1769825;80;21055;-67
2022/03/18 01:59:51;;;;;;;11.88;6.90;;;;;;;-2.86;48.24;103153.59;1758323;79;21019;-67
2022/03/18 02:02:20;;;;;;;14.87;7.67;;;;;;;-2.88;48.32;103147.62;1755900;80;21695;-66
2022/03/18 02:04:49;;;;;;;12.05;7.05;;;;;;;-2.85;48.63;103153.95;1754634;80;21125;-68
2022/03/18 02:07:17;;;;;;;16.12;7.83;;;;;;;-2.85;48.90;103155.26;1762356;80;21195;-67
2022/03/18 02:09:46;;;;;;;15.18;7.53;;;;;;;-2.86;49.04;103158.34;1758604;80;21578;-67
2022/03/18 02:12:17;;;;;;;11.88;7.30;;;;;;;-2.84;49.26;103163.45;1757594;80;21042;-67
2022/03/18 02:14:47;;;;;;;12.85;6.92;;;;;;;-2.82;49.47;103160.28;1758576;80;21455;-68
2022/03/18 02:17:18;;;;;;;11.65;6.92;;;;;;;-2.82;49.50;103159.45;1757915;80;21037;-67
2022/03/18 02:19:47;;;;;;;15.03;7.30;;;;;;;-2.83;49.46;103161.20;1760404;80;20983;-68
2022/03/18 02:22:24;;;;;;;13.10;7.35;;;;;;;-2.84;49.61;103168.69;1766536;80;21411;-67
2022/03/18 02:24:54;;;;;;;14.65;7.65;;;;;;;-2.87;49.79;103163.19;1776858;80;21058;-67
2022/03/18 02:27:21;;;;;;;13.90;7.47;;;;;;;-2.87;49.75;103165.80;1760182;80;21070;-69
2022/03/18 02:29:49;;;;;;;12.07;7.20;;;;;;;-2.87;49.65;103172.82;1774158;80;21153;-67
2022/03/18 02:32:18;;;;;;;14.30;7.85;;;;;;;-2.92;49.70;103184.08;1770752;80;21228;-67
2022/03/18 02:34:46;;;;;;;13.25;7.40;;;;;;;-2.96;49.75;103183.90;1760947;80;21043;-67
2022/03/18 02:37:13;;;;;;;12.47;7.10;;;;;;;-3.02;49.84;103190.88;1758221;79;21082;-66
2022/03/18 02:39:40;;;;;;;13.80;7.78;;;;;;;-3.05;49.88;103195.83;1771925;80;21143;-67
2022/03/18 02:42:08;;;;;;;13.98;7.25;;;;;;;-3.07;49.96;103197.22;1760182;80;21035;-68
2022/03/18 02:44:36;;;;;;;15.72;7.37;;;;;;;-3.10;50.03;103206.58;1697367;82;21205;-68
2022/03/18 02:47:03;;;;;;;13.83;7.42;;;;;;;-3.13;50.09;103208.08;1693067;82;20994;-66
2022/03/18 02:49:31;;;;;;;14.03;7.67;;;;;;;-3.15;50.07;103208.67;1719989;82;21075;-66
2022/03/18 02:51:59;;;;;;;13.72;7.58;;;;;;;-3.20;50.06;103208.12;1718980;82;21112;-66
2022/03/18 02:54:26;;;;;;;13.80;7.72;;;;;;;-3.22;50.11;103213.95;1720781;82;21011;-68
2022/03/18 02:56:53;;;;;;;13.85;7.78;;;;;;;-3.26;50.10;103215.06;1723605;82;21861;-66
2022/03/18 02:59:22;;;;;;;15.80;7.40;;;;;;;-3.26;50.08;103216.84;1720669;82;21060;-68
2022/03/18 03:01:49;;;;;;;12.43;6.78;;;;;;;-3.28;50.07;103220.05;1717997;82;21079;-66
2022/03/18 03:04:17;;;;;;;10.32;6.42;;;;;;;-3.30;50.08;103227.97;1722539;82;21098;-67
2022/03/18 03:09:32;;;;;;;16.40;8.40;;;;;;;-3.34;50.22;103230.42;1739541;82;21184;-66
2022/03/18 03:12:00;;;;;;;13.45;7.47;;;;;;;-3.35;50.37;103224.36;1738679;82;21056;-66
2022/03/18 03:14:28;;;;;;;14.65;8.13;;;;;;;-3.38;50.47;103232.40;1738171;82;21076;-67
2022/03/18 03:16:56;;;;;;;15.05;8.55;;;;;;;-3.43;50.57;103226.62;1738857;82;21064;-67
2022/03/18 03:19:23;;;;;;;17.98;9.23;;;;;;;-3.43;50.64;103230.53;1722695;80;21567;-66
2022/03/18 03:21:51;;;;;;;15.10;8.50;;;;;;;-3.43;50.74;103233.15;1722749;82;22915;-67
2022/03/18 03:24:19;;;;;;;17.05;9.38;;;;;;;-3.43;50.74;103236.23;1721768;82;21103;-66
2022/03/18 03:26:46;;;;;;;17.75;9.68;;;;;;;-3.44;50.73;103230.66;1705512;82;22243;-67
2022/03/18 03:29:14;;;;;;;17.52;8.33;;;;;;;-3.47;50.76;103235.59;1728685;82;21056;-66
2022/03/18 03:31:41;;;;;;;20.70;10.38;;;;;;;-3.50;50.79;103234.48;1721466;82;21101;-67
2022/03/18 03:34:11;;;;;;;25.97;12.95;;;;;;;-3.53;50.80;103237.30;1725950;82;21056;-67
2022/03/18 03:36:38;;;;;;;26.37;12.33;;;;;;;-3.57;50.88;103234.52;1724561;82;21108;-67
2022/03/18 03:39:06;;;;;;;24.87;12.30;;;;;;;-3.59;50.89;103242.44;1725888;82;21080;-66
2022/03/18 03:41:34;;;;;;;29.40;13.22;;;;;;;-3.60;50.93;103245.16;1739559;82;21111;-67
2022/03/18 03:44:01;;;;;;;24.35;13.08;;;;;;;-3.62;50.93;103247.02;1734049;82;21056;-67
2022/03/18 03:46:33;;;;;;;27.55;12.78;;;;;;;-3.62;50.90;103247.88;1717542;82;21142;-67
2022/03/18 03:48:58;;;;;;;26.82;13.28;;;;;;;-3.63;50.90;103247.49;1720037;82;21009;-67
2022/03/18 03:51:25;;;;;;;25.00;13.40;;;;;;;-3.67;50.97;103248.62;1682922;83;21113;-69
2022/03/18 03:53:54;;;;;;;28.50;14.53;;;;;;;-3.71;51.05;103254.98;1699252;83;21077;-67
2022/03/18 03:56:22;;;;;;;28.47;15.10;;;;;;;-3.73;51.12;103258.62;1720588;82;21076;-67
2022/03/18 03:58:53;;;;;;;26.70;13.45;;;;;;;-3.77;51.24;103262.73;1721595;82;21116;-66
2022/03/18 04:01:20;;;;;;;25.77;13.90;;;;;;;-3.76;51.33;103264.88;1724304;82;21060;-67
2022/03/18 04:03:47;;;;;;;25.60;12.47;;;;;;;-3.78;51.43;103267.59;1721091;82;21048;-68
2022/03/18 04:06:16;;;;;;;25.80;13.05;;;;;;;-3.78;51.47;103270.68;1757453;80;20947;-66
2022/03/18 04:08:43;;;;;;;24.90;12.53;;;;;;;-3.78;51.52;103273.30;1756878;79;21074;-66
2022/03/18 04:11:14;;;;;;;27.13;14.25;;;;;;;-3.78;51.50;103277.20;1755040;80;21023;-67
2022/03/18 04:13:42;;;;;;;25.65;13.72;;;;;;;-3.78;51.47;103285.05;1755812;80;20995;-67
2022/03/18 04:16:09;;;;;;;24.75;13.20;;;;;;;-3.78;51.50;103286.34;1762261;80;21537;-67
2022/03/18 04:18:37;;;;;;;29.67;14.23;;;;;;;-3.78;51.52;103288.95;1760922;80;21089;-66
2022/03/18 04:21:05;;;;;;;23.42;13.60;;;;;;;-3.75;51.51;103290.52;1757853;80;20988;-67
2022/03/18 04:23:34;;;;;;;23.35;13.25;;;;;;;-3.74;51.52;103289.60;1755298;80;21034;-66
2022/03/18 04:26:03;;;;;;;26.05;12.73;;;;;;;-3.73;51.56;103295.19;1761030;80;21039;-66
2022/03/18 04:28:30;;;;;;;25.30;13.60;;;;;;;-3.72;51.62;103293.77;1759062;80;21110;-66
2022/03/18 04:30:58;;;;;;;22.82;11.55;;;;;;;-3.67;51.61;103300.87;1756647;80;21039;-67
2022/03/18 04:33:27;;;;;;;24.57;12.00;;;;;;;-3.65;51.64;103300.32;1760155;79;21672;-67
2022/03/18 04:35:54;;;;;;;23.75;12.73;;;;;;;-3.60;51.65;103302.16;1754874;80;21274;-68
2022/03/18 04:38:23;;;;;;;22.13;11.45;;;;;;;-3.56;51.62;103305.41;1736254;80;21093;-66
2022/03/18 04:40:52;;;;;;;20.65;10.58;;;;;;;-3.54;51.61;103301.77;1726338;82;21053;-68
2022/03/18 04:43:21;;;;;;;22.17;11.18;;;;;;;-3.48;51.58;103303.17;1700344;83;21066;-66
2022/03/18 04:45:49;;;;;;;26.20;12.75;;;;;;;-3.43;51.57;103308.09;1720711;82;21051;-67
2022/03/18 04:48:16;;;;;;;24.02;12.78;;;;;;;-3.41;51.50;103312.77;1722347;82;21308;-66
2022/03/18 04:50:43;;;;;;;23.87;11.18;;;;;;;-3.38;51.52;103314.72;1720387;82;21127;-67
2022/03/18 04:53:11;;;;;;;20.90;11.10;;;;;;;-3.33;51.48;103320.47;1724290;82;21144;-67
2022/03/18 04:55:39;;;;;;;23.92;11.15;;;;;;;-3.30;51.41;103316.36;1721162;82;21044;-68
2022/03/18 04:58:07;;;;;;;22.27;10.88;;;;;;;-3.26;51.33;103318.78;1725771;82;21093;-67
2022/03/18 05:00:35;;;;;;;21.55;11.40;;;;;;;-3.21;51.27;103325.40;1720446;82;21924;-69
2022/03/18 05:03:03;;;;;;;21.25;10.38;;;;;;;-3.17;51.17;103320.80;1702430;82;21016;-67
2022/03/18 05:05:32;;;;;;;23.65;11.73;;;;;;;-3.12;51.15;103322.67;1712276;81;20984;-67
2022/03/18 05:07:59;;;;;;;24.87;12.33;;;;;;;-3.05;51.06;103321.80;1709414;83;21050;-66
2022/03/18 05:10:28;;;;;;;22.10;11.68;;;;;;;-3.02;50.93;103322.92;1721432;81;21073;-67
2022/03/18 05:12:58;;;;;;;23.55;12.37;;;;;;;-2.99;50.88;103320.94;1718391;82;22506;-67
2022/03/18 05:15:26;;;;;;;22.48;12.05;;;;;;;-2.94;50.86;103323.24;1702113;83;21050;-68
2022/03/18 05:17:54;;;;;;;21.35;10.88;;;;;;;-2.88;50.83;103325.46;1710599;83;21141;-68
2022/03/18 05:20:22;;;;;;;18.73;9.60;;;;;;;-2.80;50.75;103330.18;1693610;83;21122;-67
2022/03/18 05:22:54;;;;;;;17.05;9.65;;;;;;;-2.74;50.62;103333.70;1715212;83;21580;-66
2022/03/18 05:25:22;;;;;;;19.52;10.60;;;;;;;-2.67;50.59;103326.65;1698792;83;21968;-68
2022/03/18 05:27:52;;;;;;;18.77;9.53;;;;;;;-2.58;50.53;103327.83;1703794;81;21113;-68
2022/03/18 05:30:21;;;;;;;16.00;8.78;;;;;;;-2.45;50.36;103331.77;1702290;83;21118;-68
2022/03/18 05:32:49;;;;;;;14.33;7.35;;;;;;;-2.34;50.20;103335.80;1700033;83;21121;-67
2022/03/18 05:35:18;;;;;;;13.83;6.30;;;;;;;-2.25;49.97;103335.19;1705727;83;21081;-67
2022/03/18 05:37:45;;;;;;;12.93;6.42;;;;;;;-2.16;49.67;103339.80;1702179;83;21267;-68
2022/03/18 05:40:14;;;;;;;12.20;6.50;;;;;;;-2.10;49.52;103341.65;1700851;83;21188;-67
2022/03/18 05:42:41;;;;;;;12.95;7.03;;;;;;;-2.07;49.37;103347.52;1704859;83;21103;-67
2022/03/18 05:45:09;;;;;;;12.55;6.90;;;;;;;-1.99;49.36;103355.67;1704934;83;21102;-69
2022/03/18 05:47:36;;;;;;;11.45;6.45;;;;;;;-1.92;49.17;103350.36;1701425;83;21177;-67
2022/03/18 05:50:06;;;;;;;11.78;5.60;;;;;;;-1.83;48.94;103353.31;1698821;83;21253;-68
2022/03/18 05:52:36;;;;;;;10.18;5.53;;;;;;;-1.73;48.87;103357.80;1707887;83;21097;-68
2022/03/18 05:55:03;;;;;;;11.15;5.75;;;;;;;-1.66;48.43;103352.48;1699076;83;21057;-71
2022/03/18 05:57:32;;;;;;;11.40;5.70;;;;;;;-1.63;48.17;103351.44;1711555;82;21035;-70
2022/03/18 06:00:01;;;;;;;11.53;6.12;;;;;;;-1.60;47.94;103358.25;1718261;83;21034;-70
2022/03/18 06:02:28;;;;;;;9.78;5.35;;;;;;;-1.55;47.70;103357.44;1707091;83;21739;-68
2022/03/18 06:04:57;;;;;;;9.55;4.58;;;;;;;-1.53;47.75;103354.25;1704910;81;21208;-68
2022/03/18 06:07:25;;;;;;;11.80;5.47;;;;;;;-1.47;47.53;103359.89;1708354;83;21110;-69
2022/03/18 06:12:38;;;;;;;10.15;5.40;;;;;;;-1.30;47.12;103356.07;1708566;83;22209;-68
2022/03/18 06:15:07;;;;;;;10.08;5.33;;;;;;;-1.23;46.81;103365.17;1704517;81;21264;-69
2022/03/18 06:17:38;;;;;;;10.38;5.55;;;;;;;-1.25;46.74;103359.22;1705963;83;21169;-69
2022/03/18 06:20:08;;;;;;;9.93;5.05;;;;;;;-1.23;46.66;103365.64;1707938;83;21082;-70
2022/03/18 06:22:36;;;;;;;8.93;5.25;;;;;;;-1.19;46.65;103371.86;1707825;82;21161;-69
2022/03/18 06:25:04;;;;;;;9.60;5.37;;;;;;;-1.11;46.62;103371.81;1709744;83;21464;-69
2022/03/18 06:27:32;;;;;;;9.35;5.67;;;;;;;-1.05;46.30;103369.58;1699356;83;21046;-69
2022/03/18 06:29:59;;;;;;;10.00;5.15;;;;;;;-1.00;46.20;103369.23;1704653;81;21610;-67
2022/03/18 06:32:26;;;;;;;10.43;5.78;;;;;;;-0.93;46.24;103359.96;1697819;83;21117;-69
2022/03/18 06:34:55;;;;;;;11.03;5.85;;;;;;;-0.87;45.99;103366.08;1708224;83;21073;-68
2022/03/18 06:37:23;;;;;;;10.65;5.62;;;;;;;-0.85;46.07;103368.13;1706856;83;21106;-69
2022/03/18 06:39:50;;;;;;;9.20;5.45;;;;;;;-0.79;46.32;103366.37;1711593;82;21303;-68
2022/03/18 06:42:17;;;;;;;9.78;6.10;;;;;;;-0.67;45.99;103369.02;1711301;82;21101;-67
2022/03/18 06:44:44;;;;;;;10.58;6.40;;;;;;;-0.61;45.80;103368.09;1701348;83;21043;-68
2022/03/18 06:47:13;;;;;;;11.30;6.40;;;;;;;-0.59;45.38;103366.66;1706112;83;21550;-68
2022/03/18 06:49:40;;;;;;;11.15;6.17;;;;;;;-0.66;45.53;103369.37;1703400;82;21043;-68
2022/03/18 06:52:08;;;;;;;11.50;6.75;;;;;;;-0.72;45.54;103378.08;1693298;83;21259;-68
2022/03/18 06:54:35;;;;;;;12.63;6.75;;;;;;;-0.73;45.79;103380.80;1702325;83;21727;-68
2022/03/18 06:57:03;;;;;;;11.60;7.10;;;;;;;-0.65;45.94;103377.63;1711535;83;21141;-69
2022/03/18 06:59:30;;;;;;;11.53;7.40;;;;;;;-0.53;45.38;103374.94;1708513;83;21077;-68
2022/03/18 07:01:57;;;;;;;11.75;7.37;;;;;;;-0.40;45.38;103376.63;1701710;83;21050;-68
2022/03/18 07:04:25;;;;;;;10.03;6.37;;;;;;;-0.27;45.21;103372.95;1704303;83;21106;-69
2022/03/18 07:06:52;;;;;;;11.83;7.00;;;;;;;-0.16;44.69;103370.02;1700882;83;21074;-71
2022/03/18 07:09:19;;;;;;;11.30;5.83;;;;;;;-0.08;44.52;103379.45;1700928;83;21605;-69
2022/03/18 07:11:48;;;;;;;13.13;6.92;;;;;;;0.01;44.54;103375.30;1701705;83;21062;-73
2022/03/18 07:14:17;;;;;;;15.40;7.20;;;;;;;0.08;44.23;103373.86;1712299;83;21141;-70
2022/03/18 07:19:33;;;;;;;11.28;6.37;;;;;;;0.15;43.89;103361.91;1704624;83;21054;-69
2022/03/18 07:22:01;;;;;;;9.43;5.55;;;;;;;0.19;43.67;103369.42;1706108;82;22247;-68
2022/03/18 07:24:28;;;;;;;9.63;6.03;;;;;;;0.29;43.41;103380.55;1701403;83;21079;-68
2022/03/18 07:26:55;;;;;;;8.50;5.60;;;;;;;0.31;43.37;103381.27;1701187;83;21077;-68
2022/03/18 07:29:22;;;;;;;11.90;6.42;;;;;;;0.40;43.23;103384.02;1701552;83;21339;-69
2022/03/18 07:31:54;;;;;;;8.93;5.15;;;;;;;0.47;43.17;103385.69;1700670;83;21086;-71
2022/03/18 07:34:22;;;;;;;11.22;6.05;;;;;;;0.57;42.79;103384.49;1704058;81;21027;-69
2022/03/18 07:36:49;;;;;;;10.18;5.70;;;;;;;0.66;42.84;103381.97;1710326;83;21711;-69
2022/03/18 07:39:17;;;;;;;9.55;5.22;;;;;;;0.79;42.74;103387.55;1700631;83;21652;-68
2022/03/18 07:41:44;;;;;;;11.80;5.60;;;;;;;0.91;42.37;103384.77;1703163;83;21372;-67
2022/03/18 07:44:12;;;;;;;9.33;5.70;;;;;;;0.95;42.12;103386.67;1703925;81;21043;-68
2022/03/18 07:46:40;;;;;;;8.60;4.72;;;;;;;1.04;42.55;103383.30;1720758;81;21053;-69
2022/03/18 07:49:08;;;;;;;9.30;5.47;;;;;;;1.27;41.81;103380.59;1722687;82;21102;-70
2022/03/18 07:51:35;;;;;;;8.30;5.53;;;;;;;1.33;41.70;103383.56;1721334;82;21105;-69
2022/03/18 07:54:02;;;;;;;8.83;5.28;;;;;;;1.40;41.51;103387.84;1718460;82;21610;-71
2022/03/18 07:56:30;;;;;;;9.50;5.28;;;;;;;1.51;41.58;103386.95;1723891;82;21169;-71
2022/03/18 07:58:57;;;;;;;8.58;5.12;;;;;;;1.66;41.04;103390.12;1758561;80;20998;-70
2022/03/18 08:01:26;;;;;;;10.25;5.33;;;;;;;1.69;40.69;103388.06;1760558;80;21065;-68
2022/03/18 08:03:55;;;;;;;8.70;5.17;;;;;;;1.67;40.54;103392.61;1765358;80;21591;-68
2022/03/18 08:06:24;;;;;;;9.05;5.40;;;;;;;1.64;40.77;103392.37;1758348;80;21678;-70
2022/03/18 08:08:55;;;;;;;8.08;4.87;;;;;;;1.65;40.47;103389.29;1758356;80;21509;-69
2022/03/18 08:11:25;;;;;;;8.98;4.62;;;;;;;1.65;40.30;103386.66;1763901;80;21032;-68
2022/03/18 08:13:54;;;;;;;7.67;4.65;;;;;;;1.64;40.59;103392.37;1761657;80;21119;-71
2022/03/18 08:16:23;;;;;;;8.10;4.45;;;;;;;1.70;40.43;103394.98;1762788;80;21312;-67
2022/03/18 08:18:51;;;;;;;8.03;4.75;;;;;;;1.72;40.73;103394.88;1770895;80;21237;-69
2022/03/18 08:21:18;;;;;;;8.40;5.03;;;;;;;1.75;40.56;103388.86;1763044;80;21081;-71
2022/03/18 08:23:45;;;;;;;7.35;4.60;;;;;;;1.76;40.42;103391.84;1762393;79;21097;-69
2022/03/18 08:26:13;;;;;;;7.85;4.83;;;;;;;1.76;40.47;103397.60;1760863;80;21211;-70
2022/03/18 08:28:43;;;;;;;9.45;5.12;;;;;;;1.76;40.36;103386.58;1756163;80;21603;-71
2022/03/18 08:31:11;;;;;;;9.85;5.47;;;;;;;1.83;40.28;103390.84;1761024;79;21926;-70
2022/03/18 08:33:40;;;;;;;8.50;5.17;;;;;;;1.82;40.31;103393.97;1765443;80;22159;-70
2022/03/18 08:36:07;;;;;;;8.08;5.40;;;;;;;1.82;40.14;103389.19;1773952;79;21559;-70
2022/03/18 08:38:34;;;;;;;9.75;5.55;;;;;;;1.83;40.00;103392.16;1751289;80;21007;-68
2022/03/18 08:41:01;;;;;;;8.48;5.37;;;;;;;1.87;40.07;103383.03;1748320;80;21066;-68
2022/03/18 08:43:29;;;;;;;8.95;5.58;;;;;;;1.85;40.30;103389.77;1763909;80;21227;-70
2022/03/18 08:45:56;;;;;;;9.75;5.17;;;;;;;1.84;40.12;103397.78;1764472;80;21037;-69
2022/03/18 08:48:23;;;;;;;8.80;5.58;;;;;;;1.93;40.34;103392.22;1757805;80;21053;-68
2022/03/18 08:50:51;;;;;;;10.10;5.58;;;;;;;2.09;40.02;103392.59;1757408;80;21044;-68
2022/03/18 08:53:18;;;;;;;7.25;4.78;;;;;;;2.18;39.64;103392.30;1774545;80;21077;-68
2022/03/18 09:03:26;;;;;;;9.45;4.92;;;;;;;2.50;38.73;103385.53;1735687;82;21081;-69
2022/03/18 09:05:56;;;;;;;8.60;5.65;;;;;;;2.53;38.24;103380.85;1757295;80;38617;-69
2022/03/18 09:08:24;;;;;;;8.95;5.10;;;;;;;2.53;38.40;103380.85;1759363;80;21165;-70
2022/03/18 09:10:52;;;;;;;7.60;4.97;;;;;;;2.59;38.43;103380.28;1744628;82;21788;-68
2022/03/18 09:13:19;;;;;;;7.15;4.47;;;;;;;2.67;37.87;103377.48;1744953;82;21085;-69
2022/03/18 09:15:49;;;;;;;6.95;4.47;;;;;;;2.68;37.62;103377.83;1754442;80;21098;-69
2022/03/18 09:18:16;;;;;;;9.48;4.33;;;;;;;2.68;37.54;103381.30;1758707;80;21102;-68
2022/03/18 09:20:45;;;;;;;8.10;5.20;;;;;;;2.75;37.53;103376.31;1764597;80;21212;-70
2022/03/18 09:23:14;;;;;;;7.92;4.42;;;;;;;2.81;37.76;103378.41;1764497;81;21279;-69
2022/03/18 09:25:41;;;;;;;7.00;4.15;;;;;;;2.88;37.66;103383.98;1765034;81;21123;-69
2022/03/18 09:28:09;;;;;;;7.60;4.03;;;;;;;2.90;37.05;103385.52;1765877;81;21059;-69
2022/03/18 09:30:36;;;;;;;7.90;4.05;;;;;;;2.94;36.89;103377.66;1766607;81;21000;-68
2022/03/18 09:33:05;;;;;;;8.13;4.55;;;;;;;2.99;36.87;103379.39;1760721;80;21005;-69
2022/03/18 09:35:34;;;;;;;7.65;4.47;;;;;;;3.05;36.78;103376.70;1757165;80;21965;-67
2022/03/18 09:38:01;;;;;;;6.70;4.78;;;;;;;3.12;36.47;103370.38;1757354;80;20929;-69
2022/03/18 09:40:28;;;;;;;10.45;5.37;;;;;;;3.13;35.42;103376.03;1757172;80;21118;-68
2022/03/18 09:43:03;;;;;;;8.10;4.50;;;;;;;3.06;36.07;103374.43;1768184;80;21094;-69
2022/03/18 09:45:36;;;;;;;7.92;4.45;;;;;;;3.09;36.08;103370.16;1757027;80;21077;-68
2022/03/18 09:48:11;;;;;;;7.60;4.22;;;;;;;3.04;35.91;103373.23;1755924;80;21063;-68
2022/03/18 09:50:39;;;;;;;6.22;3.98;;;;;;;2.96;35.78;103371.78;1756405;80;21468;-67
2022/03/18 09:53:07;;;;;;;7.67;3.90;;;;;;;2.87;36.33;103365.99;1760394;80;22562;-68
2022/03/18 09:55:38;;;;;;;7.53;4.10;;;;;;;2.93;36.60;103363.27;1763663;80;21062;-70
2022/03/18 09:58:07;;;;;;;5.55;3.30;;;;;;;3.03;35.54;103366.29;1764703;80;21024;-68
2022/03/18 10:00:35;;;;;;;6.92;3.58;;;;;;;3.17;35.09;103370.81;1758905;80;21066;-67
2022/03/18 10:03:16;;;;;;;6.55;3.90;;;;;;;3.31;35.06;103364.27;1761509;80;21018;-68
2022/03/18 10:06:02;;;;;;;6.83;3.52;;;;;;;3.45;34.77;103364.66;1764215;80;21469;-68
2022/03/18 10:08:44;;;;;;;6.20;3.50;;;;;;;3.55;34.73;103365.14;1756716;80;21051;-69
2022/03/18 10:11:19;;;;;;;6.28;3.72;;;;;;;3.58;34.22;103357.77;1749134;80;21553;-68
2022/03/18 10:14:07;;;;;;;5.45;3.45;;;;;;;3.59;33.96;103356.81;1757562;80;21347;-69
2022/03/18 10:16:45;;;;;;;6.17;3.58;;;;;;;3.67;34.17;103352.13;1746640;82;20999;-68
2022/03/18 10:19:17;;;;;;;5.45;3.12;;;;;;;3.80;34.09;103352.66;1746680;82;20999;-69
2022/03/18 10:22:01;;;;;;;5.60;2.80;;;;;;;3.83;33.00;103348.41;1760829;80;21050;-68
2022/03/18 10:24:36;;;;;;;6.30;3.42;;;;;;;3.73;32.67;103346.27;1762158;80;21645;-68
2022/03/18 10:27:19;;;;;;;6.08;3.30;;;;;;;3.60;33.03;103351.86;1761213;80;21094;-68
2022/03/18 10:29:53;;;;;;;5.85;3.02;;;;;;;3.63;33.17;103348.94;1756903;80;21078;-70
2022/03/18 10:32:26;;;;;;;6.40;3.37;;;;;;;3.73;33.67;103348.42;1759666;80;20996;-68
2022/03/18 10:37:49;;;;;;;5.17;2.80;;;;;;;3.85;33.07;103353.07;1761896;80;20945;-69
2022/03/18 10:40:19;;;;;;;5.42;3.30;;;;;;;3.89;32.70;103350.47;1751499;80;21237;-68
2022/03/18 10:43:05;;;;;;;8.70;3.33;;;;;;;3.95;32.64;103355.19;1776417;80;21023;-68
2022/03/18 10:45:33;;;;;;;5.67;3.22;;;;;;;3.91;32.52;103353.79;1774939;80;21054;-68
2022/03/18 10:48:15;;;;;;;6.97;3.80;;;;;;;3.90;32.82;103354.77;1760333;80;20988;-69
2022/03/18 10:50:45;;;;;;;6.05;3.30;;;;;;;3.93;33.21;103349.70;1756359;80;21535;-69
2022/03/18 10:53:14;;;;;;;5.20;2.95;;;;;;;4.08;33.42;103345.62;1756812;80;21143;-67
2022/03/18 10:55:44;;;;;;;6.08;3.72;;;;;;;4.24;32.71;103348.94;1737577;80;21189;-69
2022/03/18 10:58:15;;;;;;;7.42;3.90;;;;;;;4.23;32.59;103349.92;1758718;80;21003;-69
2022/03/18 11:00:51;;;;;;;10.88;5.00;;;;;;;4.18;32.19;103355.67;1759378;80;21082;-69
2022/03/18 11:03:19;;;;;;;6.70;3.60;;;;;;;4.08;32.18;103352.23;1756748;80;21078;-68
2022/03/18 11:05:54;;;;;;;9.33;4.33;;;;;;;4.06;32.44;103348.05;1733721;80;22176;-67
2022/03/18 11:08:23;;;;;;;8.90;4.15;;;;;;;4.11;32.19;103339.17;1756448;80;21003;-67
2022/03/18 11:13:51;;;;;;;5.47;3.15;;;;;;;4.30;32.55;103339.09;1759322;80;21517;-66
2022/03/18 11:16:27;;;;;;;8.50;3.65;;;;;;;4.38;32.08;103336.56;1759330;80;21527;-67
2022/03/18 11:18:54;;;;;;;5.90;3.17;;;;;;;4.31;32.45;103347.40;1736756;80;21751;-67
2022/03/18 11:21:29;;;;;;;6.30;3.02;;;;;;;4.32;32.47;103341.12;1769721;80;21015;-68
2022/03/18 11:23:55;;;;;;;5.17;3.50;;;;;;;4.40;32.14;103333.75;1739032;81;22267;-67
2022/03/18 11:26:22;;;;;;;5.97;3.27;;;;;;;4.52;31.91;103339.69;1701342;83;21042;-67
2022/03/18 11:29:11;;;;;;;6.05;3.72;;;;;;;4.54;31.64;103331.95;1699986;83;21652;-68
2022/03/18 11:31:41;;;;;;;6.08;3.35;;;;;;;4.53;31.67;103333.41;1698229;83;21570;-66
2022/03/18 11:34:15;;;;;;;6.37;3.77;;;;;;;4.49;31.92;103328.08;1697164;83;21243;-68
2022/03/18 11:36:48;;;;;;;7.65;4.20;;;;;;;4.45;31.86;103328.37;1680658;83;21526;-69
2022/03/18 11:39:21;;;;;;;8.78;4.45;;;;;;;4.43;31.82;103322.88;1677790;83;21074;-68
2022/03/18 11:41:55;;;;;;;6.75;4.10;;;;;;;4.46;32.04;103321.26;1713393;83;20996;-68
2022/03/18 11:44:45;;;;;;;7.17;4.08;;;;;;;4.56;32.20;103316.73;1713787;83;21214;-68
2022/03/18 11:47:33;;;;;;;5.70;3.05;;;;;;;4.68;32.33;103322.66;1713246;83;21087;-67
2022/03/18 11:50:02;;;;;;;6.72;3.50;;;;;;;4.80;31.98;103316.14;1696656;83;20976;-69
2022/03/18 11:52:31;;;;;;;5.53;3.25;;;;;;;4.80;31.48;103324.09;1710392;83;21066;-68
2022/03/18 11:55:08;;;;;;;6.05;3.22;;;;;;;4.76;31.76;103317.44;1699914;83;20984;-68
2022/03/18 11:57:48;;;;;;;6.15;3.45;;;;;;;4.63;31.83;103314.32;1701469;83;21799;-68